createdAt,value
2019-01-12T00:01:03.849Z,7.90
2019-01-12T00:03:33.689Z,7.90
2019-01-12T00:06:03.574Z,7.90
2019-01-12T00:08:33.461Z,7.90
2019-01-12T00:11:04.752Z,7.90
2019-01-12T00:13:35.130Z,7.80
2019-01-12T00:16:06.473Z,7.90
2019-01-12T00:18:37.450Z,7.80
2019-01-12T00:21:07.388Z,7.90
2019-01-12T00:23:37.568Z,7.90
2019-01-12T00:26:07.478Z,7.90
2019-01-12T00:28:44.538Z,7.90
2019-01-12T00:31:15.955Z,7.90
2019-01-12T00:33:45.752Z,7.90
2019-01-12T00:36:15.656Z,7.90
2019-01-12T00:38:45.548Z,7.90
2019-01-12T00:41:17.556Z,7.90
2019-01-12T00:43:47.696Z,7.90
2019-01-12T00:46:17.451Z,8.00
2019-01-12T00:48:47.531Z,8.00
2019-01-12T00:51:18.716Z,8.00
2019-01-12T00:53:48.639Z,8.10
2019-01-12T00:56:21.434Z,8.10
2019-01-12T00:58:51.263Z,8.10
2019-01-12T01:01:21.547Z,8.10
2019-01-12T01:03:51.709Z,8.10
2019-01-12T01:06:21.744Z,8.10
2019-01-12T01:08:52.190Z,8.00
2019-01-12T01:11:26.401Z,8.10
2019-01-12T01:13:56.214Z,8.20
2019-01-12T01:16:26.486Z,8.20
2019-01-12T01:18:59.807Z,8.10
2019-01-12T01:21:29.598Z,8.10
2019-01-12T01:23:59.618Z,8.20
2019-01-12T01:26:29.904Z,8.10
2019-01-12T01:29:00.119Z,8.10
2019-01-12T01:31:30.441Z,8.20
2019-01-12T01:34:01.407Z,8.20
2019-01-12T01:36:33.857Z,8.20
2019-01-12T01:39:04.512Z,8.30
2019-01-12T01:41:35.095Z,9.80
2019-01-12T01:44:06.327Z,8.30
2019-01-12T01:46:36.412Z,8.30
2019-01-12T01:49:06.698Z,8.30
2019-01-12T01:51:36.497Z,8.30
2019-01-12T01:54:06.512Z,8.30
2019-01-12T01:56:36.498Z,8.30
2019-01-12T01:59:06.700Z,8.30
2019-01-12T02:01:36.410Z,8.20
2019-01-12T02:04:07.279Z,8.20
2019-01-12T02:06:37.469Z,8.30
2019-01-12T02:09:09.308Z,8.20
2019-01-12T02:11:40.926Z,8.30
2019-01-12T02:14:10.856Z,8.30
2019-01-12T02:16:42.676Z,8.30
2019-01-12T02:19:12.513Z,8.30
2019-01-12T02:21:42.916Z,8.20
2019-01-12T02:24:13.836Z,8.30
2019-01-12T02:26:43.905Z,8.30
2019-01-12T02:29:15.933Z,8.40
2019-01-12T02:31:46.344Z,8.40
2019-01-12T02:34:17.232Z,8.30
2019-01-12T02:36:47.389Z,8.30
2019-01-12T02:39:18.193Z,8.30
2019-01-12T02:41:50.330Z,8.20
2019-01-12T02:44:21.016Z,8.10
2019-01-12T02:46:51.015Z,8.10
2019-01-12T02:49:22.662Z,8.00
2019-01-12T02:51:52.658Z,8.00
2019-01-12T02:54:22.581Z,8.00
2019-01-12T02:56:52.984Z,8.10
2019-01-12T02:59:23.108Z,8.10
2019-01-12T03:02:08.544Z,8.10
2019-01-12T03:04:49.945Z,8.20
2019-01-12T03:07:20.478Z,8.30
2019-01-12T03:09:50.261Z,8.30
2019-01-12T03:12:20.232Z,8.40
2019-01-12T03:15:13.867Z,8.30
2019-01-12T03:17:43.891Z,8.40
2019-01-12T03:20:15.938Z,8.40
2019-01-12T03:22:45.921Z,8.30
2019-01-12T03:25:19.215Z,8.40
2019-01-12T03:27:49.872Z,8.50
2019-01-12T03:30:20.369Z,8.50
2019-01-12T03:32:50.939Z,8.50
2019-01-12T03:35:21.262Z,8.30
2019-01-12T03:37:53.144Z,8.50
2019-01-12T03:40:24.013Z,8.60
2019-01-12T03:42:54.107Z,8.60
2019-01-12T03:45:24.549Z,8.60
2019-01-12T03:47:55.793Z,8.60
2019-01-12T03:50:28.411Z,8.50
2019-01-12T03:52:58.945Z,8.50
2019-01-12T03:55:28.948Z,8.50
2019-01-12T03:57:59.550Z,8.50
2019-01-12T04:00:29.724Z,8.00
2019-01-12T04:03:02.372Z,8.40
2019-01-12T04:05:32.440Z,8.40
2019-01-12T04:08:04.030Z,8.40
2019-01-12T04:10:34.331Z,8.40
2019-01-12T04:13:04.562Z,8.40
2019-01-12T04:15:34.870Z,8.50
2019-01-12T04:18:05.091Z,8.50
2019-01-12T04:20:37.189Z,8.50
2019-01-12T04:23:24.885Z,8.50
2019-01-12T04:25:58.198Z,8.50
2019-01-12T04:28:30.819Z,8.50
2019-01-12T04:31:00.997Z,8.50
2019-01-12T04:33:31.001Z,8.50
2019-01-12T04:36:01.093Z,8.40
2019-01-12T04:38:31.125Z,8.50
2019-01-12T04:41:02.595Z,8.40
2019-01-12T04:43:32.732Z,8.30
2019-01-12T04:46:02.871Z,8.40
2019-01-12T04:48:33.723Z,8.40
2019-01-12T04:51:03.712Z,8.40
2019-01-12T04:53:33.732Z,8.30
2019-01-12T04:56:03.881Z,8.30
2019-01-12T04:58:37.120Z,8.30
2019-01-12T05:01:07.159Z,8.30
2019-01-12T05:03:37.182Z,8.40
2019-01-12T05:06:07.232Z,8.40
2019-01-12T05:08:37.204Z,8.30
2019-01-12T05:11:07.424Z,8.40
2019-01-12T05:13:37.409Z,8.40
2019-01-12T05:16:07.693Z,8.40
2019-01-12T05:18:38.082Z,8.40
2019-01-12T05:21:08.276Z,8.40
2019-01-12T05:23:38.224Z,8.40
2019-01-12T05:26:08.499Z,8.40
2019-01-12T05:28:39.283Z,8.40
2019-01-12T05:31:09.414Z,8.50
2019-01-12T05:33:41.552Z,8.50
2019-01-12T05:36:14.258Z,8.50
2019-01-12T05:38:44.165Z,8.50
2019-01-12T05:41:14.302Z,8.50
2019-01-12T05:43:44.168Z,8.50
2019-01-12T05:46:14.448Z,8.50
2019-01-12T05:48:44.374Z,8.50
2019-01-12T05:51:14.475Z,8.50
2019-01-12T05:53:44.495Z,8.50
2019-01-12T05:56:14.661Z,8.50
2019-01-12T05:58:44.472Z,8.50
2019-01-12T06:01:16.978Z,8.40
2019-01-12T06:03:47.088Z,8.50
2019-01-12T06:06:17.042Z,8.50
2019-01-12T06:08:48.397Z,8.50
2019-01-12T06:11:37.250Z,8.50
2019-01-12T06:14:07.407Z,8.40
2019-01-12T06:16:38.470Z,8.50
2019-01-12T06:19:12.115Z,8.60
2019-01-12T06:21:44.800Z,8.50
2019-01-12T06:24:14.785Z,8.50
2019-01-12T06:26:45.775Z,8.50
2019-01-12T06:29:16.004Z,8.50
2019-01-12T06:31:46.374Z,8.50
2019-01-12T06:34:16.520Z,8.50
2019-01-12T06:36:53.787Z,8.50
2019-01-12T06:39:23.806Z,8.50
2019-01-12T06:41:55.532Z,8.50
2019-01-12T06:44:25.477Z,8.50
2019-01-12T06:46:55.472Z,8.50
2019-01-12T06:49:25.698Z,8.50
2019-01-12T06:51:56.876Z,8.50
2019-01-12T06:54:26.851Z,8.50
2019-01-12T06:56:56.942Z,8.50
2019-01-12T06:59:26.797Z,8.50
2019-01-12T07:01:58.840Z,8.40
2019-01-12T07:04:36.282Z,8.40
2019-01-12T07:07:06.556Z,8.40
2019-01-12T07:09:36.663Z,8.30
2019-01-12T07:12:06.690Z,8.30
2019-01-12T07:14:36.966Z,8.30
2019-01-12T07:17:07.155Z,8.30
2019-01-12T07:19:37.904Z,8.40
2019-01-12T07:22:18.440Z,8.40
2019-01-12T07:24:49.493Z,8.40
2019-01-12T07:27:21.190Z,8.40
2019-01-12T07:29:51.417Z,8.40
2019-01-12T07:32:21.496Z,8.40
2019-01-12T07:34:51.743Z,8.40
2019-01-12T07:37:21.854Z,8.50
2019-01-12T07:39:51.962Z,8.40
2019-01-12T07:42:22.220Z,8.50
2019-01-12T07:44:52.298Z,8.50
2019-01-12T07:47:23.910Z,8.50
2019-01-12T07:49:54.008Z,8.50
2019-01-12T07:52:25.362Z,8.60
2019-01-12T07:54:58.023Z,8.60
2019-01-12T07:57:27.959Z,8.60
2019-01-12T07:59:59.580Z,8.70
2019-01-12T08:02:35.572Z,8.70
2019-01-12T08:05:06.873Z,8.70
2019-01-12T08:07:36.680Z,8.70
2019-01-12T08:10:10.003Z,8.80
2019-01-12T08:12:39.685Z,8.80
2019-01-12T08:15:09.570Z,8.80
2019-01-12T08:17:39.401Z,8.80
2019-01-12T08:20:10.605Z,8.80
2019-01-12T08:22:40.374Z,8.80
2019-01-12T08:25:10.545Z,8.80
2019-01-12T08:27:41.011Z,8.80
2019-01-12T08:30:15.977Z,8.90
2019-01-12T08:32:45.827Z,8.80
2019-01-12T08:35:16.504Z,8.80
2019-01-12T08:37:46.170Z,8.80
2019-01-12T08:40:16.265Z,8.70
2019-01-12T08:42:45.997Z,8.80
2019-01-12T08:45:15.855Z,8.70
2019-01-12T08:47:45.566Z,8.70
2019-01-12T08:50:20.012Z,8.70
2019-01-12T08:52:51.340Z,8.70
2019-01-12T08:55:24.719Z,8.70
2019-01-12T08:57:55.771Z,8.70
2019-01-12T09:00:26.754Z,8.70
2019-01-12T09:02:56.632Z,8.80
2019-01-12T09:05:27.090Z,8.80
2019-01-12T09:07:57.569Z,7.30
2019-01-12T09:10:27.523Z,8.80
2019-01-12T09:12:57.165Z,8.80
2019-01-12T09:15:26.984Z,8.80
2019-01-12T09:17:58.512Z,8.80
2019-01-12T09:20:29.209Z,8.90
2019-01-12T09:22:58.928Z,8.80
2019-01-12T09:25:28.950Z,8.80
2019-01-12T09:27:59.382Z,8.80
2019-01-12T09:30:29.172Z,8.70
2019-01-12T09:32:59.696Z,8.70
2019-01-12T09:35:29.616Z,8.70
2019-01-12T09:37:59.676Z,8.70
2019-01-12T09:40:31.740Z,8.80
2019-01-12T09:43:01.882Z,8.80
2019-01-12T09:45:31.635Z,8.80
2019-01-12T09:48:01.361Z,8.80
2019-01-12T09:50:31.034Z,8.80
2019-01-12T09:53:00.744Z,8.80
2019-01-12T09:55:30.411Z,8.90
2019-01-12T09:58:00.057Z,8.90
2019-01-12T10:00:34.487Z,8.90
2019-01-12T10:03:04.648Z,8.90
2019-01-12T10:05:34.336Z,8.90
2019-01-12T10:08:04.457Z,9.00
2019-01-12T10:10:34.223Z,9.00
2019-01-12T10:13:07.416Z,9.00
2019-01-12T10:15:38.148Z,9.00
2019-01-12T10:18:08.746Z,9.00
2019-01-12T10:20:38.525Z,9.10
2019-01-12T10:23:11.489Z,9.10
2019-01-12T10:25:44.061Z,9.10
2019-01-12T10:28:15.734Z,9.10
2019-01-12T10:30:46.701Z,9.20
2019-01-12T10:33:17.458Z,9.20
2019-01-12T10:35:50.923Z,9.20
2019-01-12T10:38:20.847Z,9.20
2019-01-12T10:40:50.548Z,9.30
2019-01-12T10:43:22.827Z,9.30
2019-01-12T10:45:53.307Z,9.30
2019-01-12T10:48:22.978Z,9.40
2019-01-12T10:50:52.936Z,9.30
2019-01-12T10:53:24.187Z,9.40
2019-01-12T10:55:54.169Z,9.40
2019-01-12T10:58:23.937Z,9.40
2019-01-12T11:00:54.213Z,9.40
2019-01-12T11:03:24.181Z,9.40
2019-01-12T11:05:54.501Z,9.40
2019-01-12T11:08:27.821Z,9.40
2019-01-12T11:10:57.888Z,9.40
2019-01-12T11:13:27.868Z,9.50
2019-01-12T11:15:59.320Z,9.50
2019-01-12T11:18:31.039Z,9.50
2019-01-12T11:21:01.952Z,9.60
2019-01-12T11:23:33.191Z,9.60
2019-01-12T11:26:03.807Z,9.60
2019-01-12T11:28:36.745Z,9.70
2019-01-12T11:31:10.735Z,9.70
2019-01-12T11:33:40.416Z,9.70
2019-01-12T11:36:15.247Z,9.70
2019-01-12T11:38:43.198Z,9.80
2019-01-12T11:41:13.464Z,9.80
2019-01-12T11:43:45.685Z,9.90
2019-01-12T11:46:19.152Z,10.00
2019-01-12T11:48:50.121Z,10.10
2019-01-12T11:51:22.449Z,10.20
2019-01-12T11:53:56.871Z,10.20
2019-01-12T11:56:28.634Z,10.30
2019-01-12T11:59:01.200Z,10.30
2019-01-12T12:01:34.011Z,10.30
2019-01-12T12:04:04.178Z,10.30
2019-01-12T12:06:34.464Z,10.30
2019-01-12T12:09:08.303Z,10.30
2019-01-12T12:11:39.186Z,10.30
2019-01-12T12:14:12.633Z,10.30
2019-01-12T12:16:45.266Z,10.40
2019-01-12T12:19:15.057Z,10.40
2019-01-12T12:21:45.693Z,10.40
2019-01-12T12:24:20.825Z,10.40
2019-01-12T12:26:51.225Z,10.50
2019-01-12T12:29:21.475Z,10.50
2019-01-12T12:31:53.451Z,10.50
2019-01-12T12:34:23.865Z,10.50
2019-01-12T12:36:53.748Z,10.40
2019-01-12T12:39:24.543Z,10.40
2019-01-12T12:42:03.801Z,10.40
2019-01-12T12:44:35.287Z,10.40
2019-01-12T12:47:09.530Z,10.40
2019-01-12T12:49:59.292Z,10.30
2019-01-12T12:56:02.853Z,10.30
2019-01-12T12:58:39.496Z,10.30
2019-01-12T13:01:16.890Z,10.30
2019-01-12T13:03:58.472Z,10.20
2019-01-12T13:06:30.864Z,10.20
2019-01-12T13:09:10.632Z,10.20
2019-01-12T13:11:40.696Z,10.20
2019-01-12T13:14:15.710Z,10.20
2019-01-12T13:17:47.111Z,10.20
2019-01-12T13:20:42.864Z,10.20
2019-01-12T13:26:25.324Z,10.40
2019-01-12T13:29:01.515Z,10.40
2019-01-12T13:31:35.022Z,10.30
2019-01-12T13:34:05.583Z,10.30
2019-01-12T13:36:38.882Z,10.30
2019-01-12T13:39:09.920Z,10.30
2019-01-12T13:41:40.716Z,10.30
2019-01-12T13:44:16.000Z,10.30
2019-01-12T13:46:48.065Z,10.30
2019-01-12T13:49:18.781Z,10.30
2019-01-12T13:51:51.182Z,10.40
2019-01-12T13:54:23.108Z,10.40
2019-01-12T13:57:00.824Z,10.40
2019-01-12T13:59:32.343Z,10.40
2019-01-12T14:02:17.942Z,10.40
2019-01-12T14:04:51.169Z,10.40
2019-01-12T14:07:21.544Z,10.40
2019-01-12T14:09:51.896Z,10.40
2019-01-12T14:12:22.432Z,10.30
2019-01-12T14:14:56.960Z,10.20
2019-01-12T14:17:29.187Z,10.20
2019-01-12T14:20:02.285Z,10.20
2019-01-12T14:22:33.731Z,10.10
2019-01-12T14:25:07.203Z,10.20
2019-01-12T14:27:42.804Z,10.10
2019-01-12T14:30:15.639Z,10.10
2019-01-12T14:32:45.585Z,10.10
2019-01-12T14:35:16.965Z,10.10
2019-01-12T14:37:47.396Z,10.10
2019-01-12T14:40:18.990Z,10.10
2019-01-12T14:42:50.018Z,10.10
2019-01-12T14:45:23.232Z,10.10
2019-01-12T14:47:53.701Z,10.00
2019-01-12T14:50:29.710Z,10.10
2019-01-12T14:53:03.702Z,10.00
2019-01-12T14:55:36.304Z,10.00
2019-01-12T14:58:09.426Z,10.00
2019-01-12T15:00:39.587Z,10.00
2019-01-12T15:03:09.900Z,10.00
2019-01-12T15:05:41.150Z,10.00
2019-01-12T15:08:11.284Z,10.00
2019-01-12T15:10:41.177Z,10.00
2019-01-12T15:13:10.930Z,10.00
2019-01-12T15:15:42.305Z,10.00
2019-01-12T15:18:14.471Z,9.90
2019-01-12T15:20:44.542Z,9.90
2019-01-12T15:23:14.988Z,9.90
2019-01-12T15:25:44.732Z,9.80
2019-01-12T15:28:16.216Z,9.80
2019-01-12T15:30:45.988Z,9.80
2019-01-12T15:33:18.716Z,9.80
2019-01-12T15:35:49.141Z,9.80
2019-01-12T15:38:18.914Z,9.80
2019-01-12T15:40:53.759Z,9.80
2019-01-12T15:43:24.153Z,9.70
2019-01-12T15:45:53.985Z,9.70
2019-01-12T15:48:23.722Z,9.70
2019-01-12T15:50:56.204Z,9.80
2019-01-12T15:53:26.922Z,9.70
2019-01-12T15:55:56.682Z,9.60
2019-01-12T15:58:27.007Z,9.60
2019-01-12T16:00:57.650Z,9.50
2019-01-12T16:03:28.179Z,9.40
2019-01-12T16:05:57.955Z,9.30
2019-01-12T16:08:28.826Z,9.40
2019-01-12T16:11:00.306Z,9.40
2019-01-12T16:13:31.121Z,9.40
2019-01-12T16:16:00.884Z,9.40
2019-01-12T16:18:34.458Z,9.40
2019-01-12T16:21:06.469Z,9.30
2019-01-12T16:23:36.237Z,9.30
2019-01-12T16:26:06.655Z,9.30
2019-01-12T16:28:39.069Z,9.30
2019-01-12T16:31:12.978Z,9.30
2019-01-12T16:33:43.037Z,9.20
2019-01-12T16:36:14.159Z,9.20
2019-01-12T16:38:44.095Z,9.20
2019-01-12T16:41:14.301Z,9.20
2019-01-12T16:43:44.884Z,9.20
2019-01-12T16:46:15.032Z,9.20
2019-01-12T16:48:45.456Z,9.20
2019-01-12T16:51:15.297Z,9.20
2019-01-12T16:53:46.243Z,9.20
2019-01-12T16:56:16.142Z,9.20
2019-01-12T16:58:45.904Z,9.20
2019-01-12T17:01:18.364Z,9.20
2019-01-12T17:03:48.072Z,9.20
2019-01-12T17:06:18.536Z,9.20
2019-01-12T17:08:48.673Z,9.20
2019-01-12T17:11:19.124Z,9.20
2019-01-12T17:13:51.076Z,9.10
2019-01-12T17:16:20.887Z,9.00
2019-01-12T17:18:55.203Z,9.00
2019-01-12T17:21:27.253Z,8.90
2019-01-12T17:24:01.829Z,8.90
2019-01-12T17:26:33.578Z,8.90
2019-01-12T17:29:03.672Z,8.80
2019-01-12T17:31:33.856Z,8.80
2019-01-12T17:34:05.773Z,8.70
2019-01-12T17:36:36.054Z,8.70
2019-01-12T17:39:10.565Z,8.70
2019-01-12T17:41:40.254Z,8.70
2019-01-12T17:44:10.230Z,8.70
2019-01-12T17:46:41.066Z,8.70
2019-01-12T17:49:11.664Z,8.70
2019-01-12T17:51:41.429Z,8.70
2019-01-12T17:54:11.549Z,8.70
2019-01-12T17:56:41.731Z,8.70
2019-01-12T17:59:11.791Z,8.70
2019-01-12T18:01:41.520Z,8.70
2019-01-12T18:04:12.296Z,8.70
2019-01-12T18:06:42.682Z,8.70
2019-01-12T18:09:12.352Z,8.70
2019-01-12T18:11:43.406Z,8.70
2019-01-12T18:14:13.496Z,8.70
2019-01-12T18:16:43.468Z,8.70
2019-01-12T18:19:13.666Z,8.70
2019-01-12T18:21:43.372Z,8.70
2019-01-12T18:24:13.572Z,8.70
2019-01-12T18:26:44.281Z,8.70
2019-01-12T18:29:13.925Z,8.60
2019-01-12T18:31:43.876Z,8.60
2019-01-12T18:34:13.952Z,8.70
2019-01-12T18:36:43.982Z,8.70
2019-01-12T18:39:13.776Z,8.70
2019-01-12T18:41:43.451Z,8.70
2019-01-12T18:44:13.255Z,8.60
2019-01-12T18:46:45.323Z,8.70
2019-01-12T18:49:16.931Z,8.70
2019-01-12T18:51:46.712Z,8.70
2019-01-12T18:54:19.364Z,8.60
2019-01-12T18:56:49.384Z,8.70
2019-01-12T18:59:19.145Z,8.70
2019-01-12T19:01:59.304Z,8.70
2019-01-12T19:04:29.553Z,8.70
2019-01-12T19:07:01.131Z,8.70
2019-01-12T19:09:30.844Z,8.70
2019-01-12T19:12:03.548Z,8.70
2019-01-12T19:14:34.895Z,8.70
2019-01-12T19:17:06.986Z,8.00
2019-01-12T19:19:37.800Z,8.70
2019-01-12T19:22:11.685Z,8.70
2019-01-12T19:24:43.712Z,8.70
2019-01-12T19:27:13.761Z,8.70
2019-01-12T19:29:44.764Z,8.80
2019-01-12T19:32:14.937Z,8.80
2019-01-12T19:34:45.708Z,8.80
2019-01-12T19:37:17.623Z,8.80
2019-01-12T19:39:51.437Z,8.80
2019-01-12T19:42:22.396Z,8.90
2019-01-12T19:44:52.389Z,9.00
2019-01-12T19:47:22.095Z,9.00
2019-01-12T19:49:52.204Z,8.90
2019-01-12T19:52:23.860Z,8.90
2019-01-12T19:54:54.794Z,8.90
2019-01-12T19:57:24.904Z,8.90
2019-01-12T19:59:54.628Z,8.80
2019-01-12T20:02:24.284Z,8.80
2019-01-12T20:04:55.157Z,8.90
2019-01-12T20:07:24.820Z,8.90
2019-01-12T20:09:55.135Z,8.90
2019-01-12T20:12:24.952Z,8.90
2019-01-12T20:14:54.946Z,8.90
2019-01-12T20:17:26.967Z,8.90
2019-01-12T20:19:56.752Z,8.90
2019-01-12T20:22:30.727Z,9.00
2019-01-12T20:25:02.482Z,9.00
2019-01-12T20:27:34.138Z,9.00
2019-01-12T20:33:19.782Z,9.00
2019-01-12T20:36:23.938Z,9.10
2019-01-12T20:39:20.621Z,9.20
2019-01-12T20:42:28.519Z,9.20
2019-01-12T20:45:39.057Z,9.30
2019-01-12T20:48:51.016Z,9.40
2019-01-12T20:51:57.656Z,9.40
2019-01-12T20:55:19.903Z,9.40
2019-01-12T20:58:06.540Z,9.40
2019-01-12T21:01:05.798Z,9.40
2019-01-12T21:04:15.233Z,9.50
2019-01-12T21:07:15.347Z,9.40
2019-01-12T21:10:29.030Z,9.30
2019-01-12T21:13:41.363Z,9.20
2019-01-12T21:16:28.149Z,9.20
2019-01-12T21:18:59.426Z,9.30
2019-01-12T21:21:31.212Z,9.30
2019-01-12T21:24:03.368Z,9.30
2019-01-12T21:26:35.591Z,9.30
2019-01-12T21:29:08.471Z,9.40
2019-01-12T21:31:39.536Z,9.40
2019-01-12T21:34:21.635Z,9.40
2019-01-12T21:36:51.843Z,9.40
2019-01-12T21:39:23.088Z,9.40
2019-01-12T21:41:57.711Z,9.40
2019-01-12T21:44:29.765Z,9.40
2019-01-12T21:47:00.936Z,9.50
2019-01-12T21:49:33.124Z,9.50
2019-01-12T21:52:03.579Z,9.50
2019-01-12T21:54:34.074Z,9.40
2019-01-12T21:57:05.417Z,9.40
2019-01-12T21:59:42.227Z,9.40
2019-01-12T22:02:07.131Z,9.30
2019-01-12T22:04:37.856Z,9.40
2019-01-12T22:07:09.250Z,9.40
2019-01-12T22:09:39.400Z,9.30
2019-01-12T22:12:13.654Z,9.30
2019-01-12T22:14:44.474Z,9.30
2019-01-12T22:17:14.807Z,9.30
2019-01-12T22:19:47.448Z,9.30
2019-01-12T22:22:19.667Z,9.40
2019-01-12T22:24:49.912Z,9.40
2019-01-12T22:27:21.016Z,9.50
2019-01-12T22:29:51.825Z,9.50
2019-01-12T22:32:22.813Z,9.60
2019-01-12T22:34:53.329Z,9.60
2019-01-12T22:37:24.512Z,9.50
2019-01-12T22:39:54.652Z,9.50
2019-01-12T22:42:27.815Z,9.60
2019-01-12T22:45:13.606Z,9.60
2019-01-12T22:47:49.240Z,9.60
2019-01-12T22:50:22.557Z,9.60
2019-01-12T22:53:02.552Z,9.50
2019-01-12T22:55:42.296Z,9.50
2019-01-12T23:01:38.780Z,9.60
2019-01-12T23:04:11.156Z,9.50
2019-01-12T23:07:19.011Z,9.60
2019-01-12T23:09:51.179Z,9.60
2019-01-12T23:12:22.865Z,9.60
2019-01-12T23:14:54.376Z,9.60
2019-01-12T23:17:27.875Z,9.60
2019-01-12T23:19:58.768Z,9.60
2019-01-12T23:22:28.865Z,9.70
2019-01-12T23:24:58.917Z,9.60
2019-01-12T23:27:28.891Z,9.70
2019-01-12T23:30:04.429Z,9.70
2019-01-12T23:32:33.660Z,9.80
2019-01-12T23:35:15.131Z,9.80
2019-01-12T23:38:02.401Z,9.80
2019-01-12T23:40:35.502Z,9.80
2019-01-12T23:43:06.064Z,9.90
2019-01-12T23:45:59.285Z,9.80
2019-01-12T23:48:29.435Z,9.90
2019-01-12T23:51:00.601Z,9.90
2019-01-12T23:53:35.430Z,9.90
2019-01-12T23:56:10.164Z,9.90
2019-01-12T23:58:42.100Z,9.80
